ADDS METAR Data INFO
IDs: Format: Raw Decoded Include TAF

Data at: 1716 UTC 23 Oct 2017

KCMI 231653Z 34013G25KT 10SM OVC007 13/11 A2974 RMK AO2 PK WND 34029/1642 RAE49 CIG 006V012 SLP072 P0001 T01280111
KCMI 231631Z 34016G24KT 10SM -RA BKN008 BKN110 13/11 A2974 RMK AO2 PK WND 35027/1614 P0001 T01280111
KCMI 231603Z 35015KT 10SM -RA SCT008 BKN090 OVC110 12/11 A2978 RMK AO2 PRESFR P0000 T01220106
KCMI 231553Z 34013KT 10SM -RA BKN007 BKN044 OVC100 12/11 A2979 RMK AO2 PRESFR SLP089 P0004 T01220106
KCMI 231453Z 35011G25KT 7SM -RA OVC006 12/11 A2979 RMK AO2 SLP087 P0002 60011 T01220106 58006
KCMI 231353Z 01014G21KT 6SM -RA BR OVC007 12/11 A2980 RMK AO2 SLP090 P0005 T01220106
KCMI 231326Z 36011G20KT 3SM -RA BR BKN007 BKN018 OVC022 12/11 A2980 RMK AO2 SFC VIS 4 P0003 T01170106
KCMI 231316Z 36013G19KT 2 1/2SM -RA BR BKN006 OVC020 12/11 A2980 RMK AO2 SFC VIS 3 P0003 T01170106
KCMI 231253Z 33012KT 1 1/2SM RA BR OVC007 12/10 A2981 RMK AO2 SFC VIS 3 SLP095 P0004 T01170100
KCMI 231251Z 33012KT 1 1/2SM RA BR OVC007 12/10 A2981 RMK AO2 SFC VIS 5 P0003
KCMI 231153Z 36015G24KT 8SM -RA OVC006 12/10 A2981 RMK AO2 SLP093 P0005 60046 70137 T01170100 10122 20117 56017
KCMI 231053Z 36014G22KT 10SM -RA OVC006 12/10 A2982 RMK AO2 SLP099 P0005 T01170100
KCMI 230953Z AUTO 35012G19KT 5SM RA BR OVC005 12/11 A2983 RMK AO2 PRESFR SLP102 P0014 T01170106
KCMI 230853Z AUTO 34011KT 5SM RA BR OVC005 12/11 A2986 RMK AO2 SLP111 P0006 60022 T01220111 56013
KCMI 230753Z AUTO 36009KT 6SM RA BR BKN006 OVC012 12/11 A2987 RMK AO2 SLP112 P0009 T01220111
KCMI 230653Z AUTO 01009KT 5SM RA BR FEW006 OVC012 12/11 A2990 RMK AO2 SLP121 P0007 T01220111
KCMI 230627Z AUTO 01009KT 4SM -RA BR SCT005 SCT010 OVC014 12/11 A2991 RMK AO2 P0003 T01220111
KCMI 230553Z AUTO 36007KT 4SM RA BR BKN005 BKN010 OVC015 12/11 A2992 RMK AO2 SLP129 P0028 60079 T01220111 10122 20122 402280122 56015
KCMI 230550Z AUTO 36007KT 4SM RA BR BKN005 OVC015 12/11 A2992 RMK AO2 P0027
KCMI 230536Z AUTO 01009KT 3SM +RA BR SCT005 OVC013 12/11 A2992 RMK AO2 P0024 T01220111
KCMI 230519Z AUTO 02009KT 2 1/2SM +RA BR FEW006 OVC016 12/11 A2993 RMK AO2 P0015 T01220111
KCMI 230453Z AUTO 03010KT 4SM RA BR FEW006 OVC019 12/11 A2994 RMK AO2 SLP136 P0015 T01220111
KCMI 230353Z 02010KT 5SM RA BR FEW005 OVC022 12/11 A2997 RMK AO2 SLP146 P0012 T01220111
KCMI 230310Z 01011KT 8SM -RA SCT006 OVC024 12/11 A2998 RMK AO2 P0001 T01220106
KCMI 230253Z 01010KT 6SM -RA BR BKN005 BKN018 OVC026 12/11 A2999 RMK AO2 SLP153 P0008 60024 T01220106 57008
KCMI 230233Z 35008KT 5SM RA BR BKN005 BKN018 OVC024 12/11 A3000 RMK AO2 P0006 T01220111
KCMI 230202Z 01011KT 5SM RA BR FEW005 OVC026 12/11 A2999 RMK AO2 P0002 T01220111
KCMI 230153Z 01011KT 6SM RA BR OVC026 12/11 A2999 RMK AO2 SLP155 P0011 T01220111
KCMI 230109Z 36011G19KT 4SM RA BR FEW005 OVC025 12/11 A3001 RMK AO2 P0004 T01220106
KCMI 230053Z 36013G20KT 2 1/2SM RA BR FEW006 OVC025 12/11 A3001 RMK AO2 SLP160 P0005 T01220106
KCMI 230043Z 36012G19KT 3SM -RA BR FEW006 OVC023 12/11 A3001 RMK AO2 P0003 T01220106
KCMI 230031Z 01015G19KT 2 1/2SM RA BR SCT006 BKN021 OVC026 12/11 A3001 RMK AO2 TWR VIS 3 P0002 T01220106
KCMI 222353Z 01012G19KT 3SM -RA BR BKN007 OVC023 12/11 A3001 RMK AO2 CIG 005V010 SLP162 P0004 60012 T01220106 10222 20122 53004
KCMI 222337Z 36015G21KT 4SM -RA BR BKN007 OVC020 12/11 A3001 RMK AO2 CIG 005V010 P0003 T01220106
KCMI 222253Z 34012G20KT 2SM -RA BR OVC006 12/11 A3001 RMK AO2 SFC VIS 4 RAE2156B37 SLP160 P0001 T01220106
KCMI 222153Z 33012G20KT 10SM -RA BKN006 OVC019 13/11 A3000 RMK AO2 PK WND 32026/2057 WSHFT 2040 SLP158 P0003 T01280111
KCMI 222132Z 33016G22KT 2SM -RA BR BKN006 BKN012 OVC017 13/11 A3001 RMK AO2 PK WND 32026/2057 WSHFT 2040 SFC VIS 4 P0003 T01280111
KCMI 222102Z 32015G26KT 2SM -RA BR FEW007 BKN013 OVC025 13/12 A3000 RMK AO2 PK WND 32026/2057 WSHFT 2040 SFC VIS 3 P0001 T01330117
KCMI 222055Z 32018G25KT 2SM R32R/6000VP6000FT -RA BR FEW005 BKN009 OVC025 14/13 A3000 RMK AO2 WSHFT 2040 P0000 T01390128
KCMI 222053Z 32018G23KT 2SM R32R/6000VP6000FT RA BR SCT007 BKN013 OVC036 14/13 A3000 RMK AO2 WSHFT 2037 RAB02 SLP157 P0004 60004 T01440128 53013
KCMI 222047Z 32015G21KT 2SM -RA BR SCT007 BKN023 OVC036 16/14 A2999 RMK AO2 WSHFT 2033 SFC VIS 4 RAB02 P0002
KCMI 222044Z 30014KT 5SM -RA BR BKN018 BKN030 OVC036 18/16 A2999 RMK AO2 RAB02 P0002 T01830161
KCMI 222016Z 18013KT 1 1/2SM -RA BR BKN018 BKN030 OVC036 19/18 A2998 RMK AO2 SFC VIS 2 1/2 RAB02 P0001 T01940178
KCMI 221953Z 19018G23KT 10SM BKN023 OVC032 22/16 A2997 RMK AO2 PK WND 19029/1902 SLP146 T02170161
KCMI 221853Z 19021G28KT 10SM OVC023 22/16 A2996 RMK AO2 PK WND 19032/1759 SLP143 T02170156
KCMI 221753Z 18018G26KT 10SM OVC022 22/16 A2996 RMK AO2 PK WND 18033/1714 SLP142 60000 T02220156 10228 20189 58008
KCMI 221653Z 18024G32KT 10SM OVC024 22/16 A2997 RMK AO2 PK WND 18034/1633 SLP144 T02220156
KCMI 221642Z 17025G34KT 10SM BKN026 BKN110 22/16 A2997 RMK AO2 PK WND 18034/1633 T02220156
KCMI 221553Z 16020G24KT 10SM SCT024 SCT085 BKN110 20/16 A2998 RMK AO2 PK WND 16032/1529 RAB20E48 SLP149 P0000 T02000161
KCMI 221453Z 17018G27KT 10SM FEW025 SCT100 21/15 A2998 RMK AO2 PK WND 17029/1437 SLP150 T02110150 50001
KCMI 221400Z 16018KT 10SM BKN095 20/14 A2999 RMK AO2 T02000144
KCMI 221353Z 16016G23KT 10SM BKN026 20/14 A2999 RMK AO2 SLP151 T02000144
KCMI 221300Z 15016KT 10SM BKN025 BKN110 19/14 A2998 RMK AO2 T01940144
KCMI 221253Z 16016KT 10SM SCT025 BKN110 19/14 A2999 RMK AO2 SLP150 T01940144
KCMI 221153Z 15016KT 10SM FEW045 BKN110 19/14 A2998 RMK AO2 SLP149 T01890139 10194 20189 53003
KCMI 221053Z 15017G22KT 10SM BKN090 OVC120 19/14 A2997 RMK AO2 SLP146 T01890139
KCMI 220953Z AUTO 15015KT 10SM OVC095 19/14 A2998 RMK AO2 SLP146 T01890139
KCMI 220853Z AUTO 15015KT 10SM FEW095 19/14 A2997 RMK AO2 SLP145 T01890139 56026
KCMI 220753Z AUTO 16016KT 10SM SCT075 19/14 A2999 RMK AO2 SLP152 T01940139
KCMI 220653Z AUTO 16013KT 10SM CLR 19/13 A3003 RMK AO2 SLP164 T01890133
KCMI 220553Z AUTO 17011KT 10SM SCT070 OVC090 19/13 A3005 RMK AO2 SLP172 T01890128 10217 20189 402670106 50001